sensor_id;sensor_type;location;lat;lon;timestamp;temperature;humidity
18281;DHT22;9266;51.132;17.062;2023-12-29T00:01:53;4.10;11.80
18281;DHT22;9266;51.132;17.062;2023-12-29T00:04:20;4.10;50.40
18281;DHT22;9266;51.132;17.062;2023-12-29T00:06:47;4.10;56.50
18281;DHT22;9266;51.132;17.062;2023-12-29T00:09:15;4.10;63.10
18281;DHT22;9266;51.132;17.062;2023-12-29T00:11:42;4.10;99.90
18281;DHT22;9266;51.132;17.062;2023-12-29T00:14:08;4.10;99.90
18281;DHT22;9266;51.132;17.062;2023-12-29T00:16:37;4.20;99.90
18281;DHT22;9266;51.132;17.062;2023-12-29T00:19:04;4.40;99.90
18281;DHT22;9266;51.132;17.062;2023-12-29T00:21:31;4.40;99.90
18281;DHT22;9266;51.132;17.062;2023-12-29T00:23:58;4.40;99.90
18281;DHT22;9266;51.132;17.062;2023-12-29T00:26:25;4.50;99.90
18281;DHT22;9266;51.132;17.062;2023-12-29T00:28:52;4.50;99.90
18281;DHT22;9266;51.132;17.062;2023-12-29T00:31:18;4.60;99.90
18281;DHT22;9266;51.132;17.062;2023-12-29T00:33:47;4.50;99.90
18281;DHT22;9266;51.132;17.062;2023-12-29T00:36:17;4.60;99.90
18281;DHT22;9266;51.132;17.062;2023-12-29T00:38:45;4.50;99.90
18281;DHT22;9266;51.132;17.062;2023-12-29T00:41:12;4.50;99.90
18281;DHT22;9266;51.132;17.062;2023-12-29T00:43:39;4.40;99.90
18281;DHT22;9266;51.132;17.062;2023-12-29T00:46:06;4.50;99.90
18281;DHT22;9266;51.132;17.062;2023-12-29T00:48:34;4.50;99.90
18281;DHT22;9266;51.132;17.062;2023-12-29T00:51:02;4.60;99.90
18281;DHT22;9266;51.132;17.062;2023-12-29T00:53:29;4.50;99.90
18281;DHT22;9266;51.132;17.062;2023-12-29T00:55:57;4.50;99.90
18281;DHT22;9266;51.132;17.062;2023-12-29T00:58:24;4.50;99.90
18281;DHT22;9266;51.132;17.062;2023-12-29T01:00:51;4.40;99.90
18281;DHT22;9266;51.132;17.062;2023-12-29T01:03:18;4.60;99.90
18281;DHT22;9266;51.132;17.062;2023-12-29T01:05:45;4.60;99.90
18281;DHT22;9266;51.132;17.062;2023-12-29T01:08:14;4.60;99.90
18281;DHT22;9266;51.132;17.062;2023-12-29T01:10:41;4.70;99.90
18281;DHT22;9266;51.132;17.062;2023-12-29T01:13:08;4.70;99.90
18281;DHT22;9266;51.132;17.062;2023-12-29T01:15:35;4.70;99.90
18281;DHT22;9266;51.132;17.062;2023-12-29T01:18:02;4.70;99.90
18281;DHT22;9266;51.132;17.062;2023-12-29T01:20:28;4.70;99.90
18281;DHT22;9266;51.132;17.062;2023-12-29T01:22:55;4.70;99.90
18281;DHT22;9266;51.132;17.062;2023-12-29T01:25:24;4.80;99.90
18281;DHT22;9266;51.132;17.062;2023-12-29T01:27:51;4.80;99.90
18281;DHT22;9266;51.132;17.062;2023-12-29T01:30:17;4.80;96.80
18281;DHT22;9266;51.132;17.062;2023-12-29T01:32:44;4.70;31.70
18281;DHT22;9266;51.132;17.062;2023-12-29T01:35:11;4.70;1.00
18281;DHT22;9266;51.132;17.062;2023-12-29T01:37:38;4.60;1.00
18281;DHT22;9266;51.132;17.062;2023-12-29T01:40:06;4.70;1.00
18281;DHT22;9266;51.132;17.062;2023-12-29T01:42:34;4.70;1.00
18281;DHT22;9266;51.132;17.062;2023-12-29T01:45:01;4.70;1.00
18281;DHT22;9266;51.132;17.062;2023-12-29T01:47:28;4.60;1.00
18281;DHT22;9266;51.132;17.062;2023-12-29T01:49:56;4.50;1.00
18281;DHT22;9266;51.132;17.062;2023-12-29T01:52:23;4.60;1.00
18281;DHT22;9266;51.132;17.062;2023-12-29T01:54:51;4.80;1.00
18281;DHT22;9266;51.132;17.062;2023-12-29T01:57:20;4.60;1.00
18281;DHT22;9266;51.132;17.062;2023-12-29T01:59:49;4.60;1.00
18281;DHT22;9266;51.132;17.062;2023-12-29T02:02:16;4.60;1.00
18281;DHT22;9266;51.132;17.062;2023-12-29T02:04:44;4.60;1.00
18281;DHT22;9266;51.132;17.062;2023-12-29T02:07:11;4.60;1.00
18281;DHT22;9266;51.132;17.062;2023-12-29T02:09:39;4.50;1.00
18281;DHT22;9266;51.132;17.062;2023-12-29T02:12:06;4.60;1.00
18281;DHT22;9266;51.132;17.062;2023-12-29T02:14:33;4.60;1.00
18281;DHT22;9266;51.132;17.062;2023-12-29T02:17:08;4.50;1.00
18281;DHT22;9266;51.132;17.062;2023-12-29T02:19:38;4.70;1.00
18281;DHT22;9266;51.132;17.062;2023-12-29T02:22:07;4.70;1.00
18281;DHT22;9266;51.132;17.062;2023-12-29T02:24:34;4.80;1.00
18281;DHT22;9266;51.132;17.062;2023-12-29T02:27:08;4.90;1.00
18281;DHT22;9266;51.132;17.062;2023-12-29T02:29:38;5.00;99.90
18281;DHT22;9266;51.132;17.062;2023-12-29T02:32:08;5.00;99.90
18281;DHT22;9266;51.132;17.062;2023-12-29T02:34:38;5.10;1.00
18281;DHT22;9266;51.132;17.062;2023-12-29T02:37:08;5.10;66.00
18281;DHT22;9266;51.132;17.062;2023-12-29T02:39:36;5.10;1.00
18281;DHT22;9266;51.132;17.062;2023-12-29T02:42:05;5.10;1.00
18281;DHT22;9266;51.132;17.062;2023-12-29T02:44:32;5.00;1.00
18281;DHT22;9266;51.132;17.062;2023-12-29T02:46:59;4.90;1.00
18281;DHT22;9266;51.132;17.062;2023-12-29T02:49:26;4.90;1.00
18281;DHT22;9266;51.132;17.062;2023-12-29T02:51:53;4.80;1.00
18281;DHT22;9266;51.132;17.062;2023-12-29T02:54:20;4.70;1.00
18281;DHT22;9266;51.132;17.062;2023-12-29T02:56:47;4.70;99.90
18281;DHT22;9266;51.132;17.062;2023-12-29T02:59:15;4.70;99.90
18281;DHT22;9266;51.132;17.062;2023-12-29T03:01:42;4.70;1.00
18281;DHT22;9266;51.132;17.062;2023-12-29T03:04:09;4.70;1.00
18281;DHT22;9266;51.132;17.062;2023-12-29T03:06:36;4.60;1.00
18281;DHT22;9266;51.132;17.062;2023-12-29T03:09:03;4.50;1.00
18281;DHT22;9266;51.132;17.062;2023-12-29T03:11:30;4.50;42.40
18281;DHT22;9266;51.132;17.062;2023-12-29T03:13:57;4.40;99.90
18281;DHT22;9266;51.132;17.062;2023-12-29T03:16:25;4.40;1.00
18281;DHT22;9266;51.132;17.062;2023-12-29T03:18:52;4.30;1.00
18281;DHT22;9266;51.132;17.062;2023-12-29T03:21:19;4.30;1.00
18281;DHT22;9266;51.132;17.062;2023-12-29T03:23:46;4.40;1.00
18281;DHT22;9266;51.132;17.062;2023-12-29T03:26:13;4.50;1.00
18281;DHT22;9266;51.132;17.062;2023-12-29T03:28:40;4.60;1.00
18281;DHT22;9266;51.132;17.062;2023-12-29T03:31:07;4.70;1.00
18281;DHT22;9266;51.132;17.062;2023-12-29T03:33:35;4.70;1.00
18281;DHT22;9266;51.132;17.062;2023-12-29T03:36:02;4.80;1.00
18281;DHT22;9266;51.132;17.062;2023-12-29T03:38:29;4.80;99.90
18281;DHT22;9266;51.132;17.062;2023-12-29T03:40:57;4.80;1.00
18281;DHT22;9266;51.132;17.062;2023-12-29T03:43:24;4.80;99.90
18281;DHT22;9266;51.132;17.062;2023-12-29T03:45:51;4.80;1.00
18281;DHT22;9266;51.132;17.062;2023-12-29T03:48:18;4.70;1.00
18281;DHT22;9266;51.132;17.062;2023-12-29T03:50:46;4.70;99.90
18281;DHT22;9266;51.132;17.062;2023-12-29T03:53:13;4.70;99.90
18281;DHT22;9266;51.132;17.062;2023-12-29T03:55:40;4.70;1.00
18281;DHT22;9266;51.132;17.062;2023-12-29T03:58:07;4.80;1.00
18281;DHT22;9266;51.132;17.062;2023-12-29T04:00:35;4.80;99.90
18281;DHT22;9266;51.132;17.062;2023-12-29T04:03:02;4.80;99.90
18281;DHT22;9266;51.132;17.062;2023-12-29T04:05:29;4.70;99.90
18281;DHT22;9266;51.132;17.062;2023-12-29T04:07:57;4.80;99.90
18281;DHT22;9266;51.132;17.062;2023-12-29T04:10:24;4.80;99.90
18281;DHT22;9266;51.132;17.062;2023-12-29T04:12:51;4.80;1.00
18281;DHT22;9266;51.132;17.062;2023-12-29T04:15:18;4.80;1.00
18281;DHT22;9266;51.132;17.062;2023-12-29T04:17:45;4.80;1.00
18281;DHT22;9266;51.132;17.062;2023-12-29T04:20:12;4.80;1.00
18281;DHT22;9266;51.132;17.062;2023-12-29T04:22:39;4.90;1.00
18281;DHT22;9266;51.132;17.062;2023-12-29T04:25:08;4.90;1.00
18281;DHT22;9266;51.132;17.062;2023-12-29T04:27:35;4.90;99.90
18281;DHT22;9266;51.132;17.062;2023-12-29T04:30:02;4.90;1.00
18281;DHT22;9266;51.132;17.062;2023-12-29T04:32:29;4.90;99.90
18281;DHT22;9266;51.132;17.062;2023-12-29T04:34:56;4.90;99.90
18281;DHT22;9266;51.132;17.062;2023-12-29T04:37:23;5.00;1.00
18281;DHT22;9266;51.132;17.062;2023-12-29T04:39:50;4.90;1.00
18281;DHT22;9266;51.132;17.062;2023-12-29T04:42:18;5.00;1.00
18281;DHT22;9266;51.132;17.062;2023-12-29T04:44:45;5.00;1.00
18281;DHT22;9266;51.132;17.062;2023-12-29T04:47:12;5.00;99.90
18281;DHT22;9266;51.132;17.062;2023-12-29T04:49:39;5.10;65.40
18281;DHT22;9266;51.132;17.062;2023-12-29T04:52:06;5.10;1.00
18281;DHT22;9266;51.132;17.062;2023-12-29T04:54:33;5.20;1.00
18281;DHT22;9266;51.132;17.062;2023-12-29T04:57:00;5.20;1.00
18281;DHT22;9266;51.132;17.062;2023-12-29T04:59:28;5.30;1.00
18281;DHT22;9266;51.132;17.062;2023-12-29T05:01:55;5.20;99.90
18281;DHT22;9266;51.132;17.062;2023-12-29T05:04:22;5.30;1.00
18281;DHT22;9266;51.132;17.062;2023-12-29T05:06:49;5.30;1.00
18281;DHT22;9266;51.132;17.062;2023-12-29T05:09:16;5.30;1.00
18281;DHT22;9266;51.132;17.062;2023-12-29T05:11:43;5.40;1.00
18281;DHT22;9266;51.132;17.062;2023-12-29T05:14:10;5.50;1.00
18281;DHT22;9266;51.132;17.062;2023-12-29T05:16:38;5.40;1.00
18281;DHT22;9266;51.132;17.062;2023-12-29T05:19:05;5.40;1.00
18281;DHT22;9266;51.132;17.062;2023-12-29T05:21:32;5.40;1.00
18281;DHT22;9266;51.132;17.062;2023-12-29T05:23:59;5.40;1.00
18281;DHT22;9266;51.132;17.062;2023-12-29T05:26:26;5.50;1.00
18281;DHT22;9266;51.132;17.062;2023-12-29T05:28:53;5.40;1.00
18281;DHT22;9266;51.132;17.062;2023-12-29T05:31:20;5.40;1.00
18281;DHT22;9266;51.132;17.062;2023-12-29T05:33:48;5.40;1.00
18281;DHT22;9266;51.132;17.062;2023-12-29T05:36:15;5.70;99.90
18281;DHT22;9266;51.132;17.062;2023-12-29T05:41:13;6.00;1.00
18281;DHT22;9266;51.132;17.062;2023-12-29T05:43:40;6.20;1.00
18281;DHT22;9266;51.132;17.062;2023-12-29T05:46:09;6.30;1.00
18281;DHT22;9266;51.132;17.062;2023-12-29T05:48:37;6.30;99.90
18281;DHT22;9266;51.132;17.062;2023-12-29T05:51:07;6.50;99.90
18281;DHT22;9266;51.132;17.062;2023-12-29T05:53:35;6.50;99.90
18281;DHT22;9266;51.132;17.062;2023-12-29T05:56:02;6.50;1.00
18281;DHT22;9266;51.132;17.062;2023-12-29T05:58:29;6.50;1.00
18281;DHT22;9266;51.132;17.062;2023-12-29T06:00:56;6.50;1.00
18281;DHT22;9266;51.132;17.062;2023-12-29T06:03:24;6.50;1.00
18281;DHT22;9266;51.132;17.062;2023-12-29T06:05:51;6.50;1.00
18281;DHT22;9266;51.132;17.062;2023-12-29T06:08:19;6.50;1.00
18281;DHT22;9266;51.132;17.062;2023-12-29T06:10:46;6.40;1.00
18281;DHT22;9266;51.132;17.062;2023-12-29T06:13:13;6.40;1.00
18281;DHT22;9266;51.132;17.062;2023-12-29T06:15:40;6.40;1.00
18281;DHT22;9266;51.132;17.062;2023-12-29T06:18:07;6.30;1.00
18281;DHT22;9266;51.132;17.062;2023-12-29T06:20:34;6.40;1.00
18281;DHT22;9266;51.132;17.062;2023-12-29T06:23:01;6.30;1.00
18281;DHT22;9266;51.132;17.062;2023-12-29T06:25:29;6.30;1.00
18281;DHT22;9266;51.132;17.062;2023-12-29T06:27:56;6.30;1.00
18281;DHT22;9266;51.132;17.062;2023-12-29T06:30:23;6.20;1.00
18281;DHT22;9266;51.132;17.062;2023-12-29T06:32:50;6.20;1.00
18281;DHT22;9266;51.132;17.062;2023-12-29T06:35:17;5.60;1.00
18281;DHT22;9266;51.132;17.062;2023-12-29T06:37:44;6.10;10.80
18281;DHT22;9266;51.132;17.062;2023-12-29T06:40:12;6.10;99.90
18281;DHT22;9266;51.132;17.062;2023-12-29T06:42:40;6.20;99.90
18281;DHT22;9266;51.132;17.062;2023-12-29T06:45:08;6.10;99.90
18281;DHT22;9266;51.132;17.062;2023-12-29T06:47:35;6.10;99.90
18281;DHT22;9266;51.132;17.062;2023-12-29T06:50:02;6.20;99.90
18281;DHT22;9266;51.132;17.062;2023-12-29T06:52:30;6.20;41.20
18281;DHT22;9266;51.132;17.062;2023-12-29T06:54:59;6.20;1.00
18281;DHT22;9266;51.132;17.062;2023-12-29T06:57:26;6.20;11.10
18281;DHT22;9266;51.132;17.062;2023-12-29T06:59:55;6.20;63.20
18281;DHT22;9266;51.132;17.062;2023-12-29T07:02:22;6.30;16.90
18281;DHT22;9266;51.132;17.062;2023-12-29T07:04:49;6.30;1.00
18281;DHT22;9266;51.132;17.062;2023-12-29T07:07:16;6.40;1.00
18281;DHT22;9266;51.132;17.062;2023-12-29T07:09:43;6.40;1.00
18281;DHT22;9266;51.132;17.062;2023-12-29T07:12:10;6.40;1.00
18281;DHT22;9266;51.132;17.062;2023-12-29T07:14:37;6.50;1.00
18281;DHT22;9266;51.132;17.062;2023-12-29T07:17:05;6.60;1.00
18281;DHT22;9266;51.132;17.062;2023-12-29T07:19:32;6.70;99.90
18281;DHT22;9266;51.132;17.062;2023-12-29T07:22:03;6.80;99.90
18281;DHT22;9266;51.132;17.062;2023-12-29T07:24:31;6.90;58.40
18281;DHT22;9266;51.132;17.062;2023-12-29T07:26:58;7.10;1.00
18281;DHT22;9266;51.132;17.062;2023-12-29T07:29:25;7.20;1.00
18281;DHT22;9266;51.132;17.062;2023-12-29T07:31:52;7.40;1.00
18281;DHT22;9266;51.132;17.062;2023-12-29T07:34:21;7.50;1.00
18281;DHT22;9266;51.132;17.062;2023-12-29T07:36:48;7.50;1.00
18281;DHT22;9266;51.132;17.062;2023-12-29T07:39:15;7.50;99.90
18281;DHT22;9266;51.132;17.062;2023-12-29T07:41:42;7.50;99.90
18281;DHT22;9266;51.132;17.062;2023-12-29T07:44:10;7.40;99.90
18281;DHT22;9266;51.132;17.062;2023-12-29T07:46:37;7.30;99.90
18281;DHT22;9266;51.132;17.062;2023-12-29T07:49:04;7.30;1.00
18281;DHT22;9266;51.132;17.062;2023-12-29T07:51:33;7.20;1.00
18281;DHT22;9266;51.132;17.062;2023-12-29T07:54:00;7.20;1.00
18281;DHT22;9266;51.132;17.062;2023-12-29T07:56:27;7.20;1.00
18281;DHT22;9266;51.132;17.062;2023-12-29T07:58:54;7.20;1.00
18281;DHT22;9266;51.132;17.062;2023-12-29T08:01:21;7.20;1.00
18281;DHT22;9266;51.132;17.062;2023-12-29T08:03:47;7.30;1.00
18281;DHT22;9266;51.132;17.062;2023-12-29T08:06:14;7.30;1.00
18281;DHT22;9266;51.132;17.062;2023-12-29T08:08:43;7.30;1.00
18281;DHT22;9266;51.132;17.062;2023-12-29T08:11:13;7.40;1.00
18281;DHT22;9266;51.132;17.062;2023-12-29T08:13:41;7.50;99.90
18281;DHT22;9266;51.132;17.062;2023-12-29T08:16:08;7.50;99.90
18281;DHT22;9266;51.132;17.062;2023-12-29T08:18:34;7.60;99.90
18281;DHT22;9266;51.132;17.062;2023-12-29T08:21:01;7.70;99.90
18281;DHT22;9266;51.132;17.062;2023-12-29T08:23:28;7.80;99.90
18281;DHT22;9266;51.132;17.062;2023-12-29T08:25:57;7.90;99.90
18281;DHT22;9266;51.132;17.062;2023-12-29T08:28:25;8.10;99.90
18281;DHT22;9266;51.132;17.062;2023-12-29T08:30:52;8.20;99.90
18281;DHT22;9266;51.132;17.062;2023-12-29T08:33:19;8.30;99.90
18281;DHT22;9266;51.132;17.062;2023-12-29T08:35:46;8.40;99.90
18281;DHT22;9266;51.132;17.062;2023-12-29T08:38:13;8.50;99.90
18281;DHT22;9266;51.132;17.062;2023-12-29T08:40:40;8.70;99.90
18281;DHT22;9266;51.132;17.062;2023-12-29T08:43:09;8.80;99.90
18281;DHT22;9266;51.132;17.062;2023-12-29T08:45:35;8.90;99.90
18281;DHT22;9266;51.132;17.062;2023-12-29T08:48:04;9.00;99.90
18281;DHT22;9266;51.132;17.062;2023-12-29T08:50:31;9.00;99.90
18281;DHT22;9266;51.132;17.062;2023-12-29T08:52:58;9.10;99.90
18281;DHT22;9266;51.132;17.062;2023-12-29T08:55:25;9.20;99.90
18281;DHT22;9266;51.132;17.062;2023-12-29T08:57:52;9.40;99.90
18281;DHT22;9266;51.132;17.062;2023-12-29T09:00:20;9.40;99.90
18281;DHT22;9266;51.132;17.062;2023-12-29T09:02:47;9.50;99.90
18281;DHT22;9266;51.132;17.062;2023-12-29T09:05:14;9.60;99.90
18281;DHT22;9266;51.132;17.062;2023-12-29T09:07:41;9.60;99.90
18281;DHT22;9266;51.132;17.062;2023-12-29T09:10:08;9.70;99.20
18281;DHT22;9266;51.132;17.062;2023-12-29T09:12:38;9.70;95.00
18281;DHT22;9266;51.132;17.062;2023-12-29T09:15:06;9.80;92.30
18281;DHT22;9266;51.132;17.062;2023-12-29T09:17:35;9.90;92.50
18281;DHT22;9266;51.132;17.062;2023-12-29T09:20:02;9.40;88.80
18281;DHT22;9266;51.132;17.062;2023-12-29T09:22:29;10.00;82.20
18281;DHT22;9266;51.132;17.062;2023-12-29T09:24:56;10.10;75.70
18281;DHT22;9266;51.132;17.062;2023-12-29T09:27:23;10.10;68.50
18281;DHT22;9266;51.132;17.062;2023-12-29T09:29:50;10.10;66.80
18281;DHT22;9266;51.132;17.062;2023-12-29T09:32:17;10.20;63.80
18281;DHT22;9266;51.132;17.062;2023-12-29T09:34:45;10.30;57.20
18281;DHT22;9266;51.132;17.062;2023-12-29T09:37:12;10.40;49.30
18281;DHT22;9266;51.132;17.062;2023-12-29T09:39:39;10.50;44.60
18281;DHT22;9266;51.132;17.062;2023-12-29T09:42:08;10.50;36.70
18281;DHT22;9266;51.132;17.062;2023-12-29T09:44:36;10.60;30.60
18281;DHT22;9266;51.132;17.062;2023-12-29T09:47:03;10.80;27.50
18281;DHT22;9266;51.132;17.062;2023-12-29T09:49:36;10.90;22.10
18281;DHT22;9266;51.132;17.062;2023-12-29T09:52:06;11.00;21.00
18281;DHT22;9266;51.132;17.062;2023-12-29T09:54:34;11.00;18.60
18281;DHT22;9266;51.132;17.062;2023-12-29T09:57:03;11.10;17.40
18281;DHT22;9266;51.132;17.062;2023-12-29T09:59:32;11.20;9.10
18281;DHT22;9266;51.132;17.062;2023-12-29T10:02:02;11.20;6.90
18281;DHT22;9266;51.132;17.062;2023-12-29T10:04:30;11.20;4.70
18281;DHT22;9266;51.132;17.062;2023-12-29T10:06:58;11.30;5.00
18281;DHT22;9266;51.132;17.062;2023-12-29T10:09:30;11.40;1.10
18281;DHT22;9266;51.132;17.062;2023-12-29T10:12:00;11.30;1.00
18281;DHT22;9266;51.132;17.062;2023-12-29T10:14:34;11.40;1.00
18281;DHT22;9266;51.132;17.062;2023-12-29T10:17:08;11.40;1.00
18281;DHT22;9266;51.132;17.062;2023-12-29T10:19:40;11.40;1.00
18281;DHT22;9266;51.132;17.062;2023-12-29T10:22:11;11.30;1.00
18281;DHT22;9266;51.132;17.062;2023-12-29T10:24:43;11.30;1.00
18281;DHT22;9266;51.132;17.062;2023-12-29T10:27:11;11.30;1.00
18281;DHT22;9266;51.132;17.062;2023-12-29T10:29:38;11.40;1.00
18281;DHT22;9266;51.132;17.062;2023-12-29T10:32:06;11.50;1.00
18281;DHT22;9266;51.132;17.062;2023-12-29T10:34:33;11.50;1.00
18281;DHT22;9266;51.132;17.062;2023-12-29T10:37:00;11.50;1.00
18281;DHT22;9266;51.132;17.062;2023-12-29T10:39:30;11.60;1.00
18281;DHT22;9266;51.132;17.062;2023-12-29T10:42:05;11.60;1.00
18281;DHT22;9266;51.132;17.062;2023-12-29T10:44:33;11.70;1.00
18281;DHT22;9266;51.132;17.062;2023-12-29T10:47:07;11.70;1.00
18281;DHT22;9266;51.132;17.062;2023-12-29T10:49:35;11.70;1.00
18281;DHT22;9266;51.132;17.062;2023-12-29T10:52:11;11.70;1.00
18281;DHT22;9266;51.132;17.062;2023-12-29T10:54:39;11.70;1.00
18281;DHT22;9266;51.132;17.062;2023-12-29T10:57:08;11.60;1.00
18281;DHT22;9266;51.132;17.062;2023-12-29T10:59:36;11.60;1.00
18281;DHT22;9266;51.132;17.062;2023-12-29T11:02:03;11.60;1.00
18281;DHT22;9266;51.132;17.062;2023-12-29T11:04:30;11.60;1.00
18281;DHT22;9266;51.132;17.062;2023-12-29T11:06:57;11.70;1.00
18281;DHT22;9266;51.132;17.062;2023-12-29T11:09:28;11.90;1.00
18281;DHT22;9266;51.132;17.062;2023-12-29T11:11:56;12.00;1.00
18281;DHT22;9266;51.132;17.062;2023-12-29T11:14:25;12.30;1.00
18281;DHT22;9266;51.132;17.062;2023-12-29T11:16:54;12.30;1.00
18281;DHT22;9266;51.132;17.062;2023-12-29T11:19:22;12.40;1.00
18281;DHT22;9266;51.132;17.062;2023-12-29T11:21:52;12.40;1.00
18281;DHT22;9266;51.132;17.062;2023-12-29T11:24:19;12.50;1.00
18281;DHT22;9266;51.132;17.062;2023-12-29T11:26:48;12.70;1.00
18281;DHT22;9266;51.132;17.062;2023-12-29T11:29:16;12.60;1.00
18281;DHT22;9266;51.132;17.062;2023-12-29T11:31:46;12.30;1.00
18281;DHT22;9266;51.132;17.062;2023-12-29T11:34:18;12.20;1.00
18281;DHT22;9266;51.132;17.062;2023-12-29T11:36:47;12.30;1.00
18281;DHT22;9266;51.132;17.062;2023-12-29T11:39:19;12.30;1.00
18281;DHT22;9266;51.132;17.062;2023-12-29T11:41:51;12.20;1.00
18281;DHT22;9266;51.132;17.062;2023-12-29T11:44:25;12.30;1.00
18281;DHT22;9266;51.132;17.062;2023-12-29T11:46:54;12.30;1.00
18281;DHT22;9266;51.132;17.062;2023-12-29T11:49:21;12.30;1.00
18281;DHT22;9266;51.132;17.062;2023-12-29T11:51:48;12.20;1.00
18281;DHT22;9266;51.132;17.062;2023-12-29T11:54:22;12.10;1.00
18281;DHT22;9266;51.132;17.062;2023-12-29T11:56:49;12.20;1.00
18281;DHT22;9266;51.132;17.062;2023-12-29T11:59:17;12.10;1.00
18281;DHT22;9266;51.132;17.062;2023-12-29T12:01:46;12.10;1.00
18281;DHT22;9266;51.132;17.062;2023-12-29T12:04:39;12.00;1.00
18281;DHT22;9266;51.132;17.062;2023-12-29T12:07:08;11.90;1.00
18281;DHT22;9266;51.132;17.062;2023-12-29T12:09:35;11.90;1.00
18281;DHT22;9266;51.132;17.062;2023-12-29T12:12:04;11.70;1.00
18281;DHT22;9266;51.132;17.062;2023-12-29T12:14:48;11.60;1.00
18281;DHT22;9266;51.132;17.062;2023-12-29T12:17:29;11.60;1.00
18281;DHT22;9266;51.132;17.062;2023-12-29T12:19:59;11.70;1.00
18281;DHT22;9266;51.132;17.062;2023-12-29T12:22:30;11.70;1.00
18281;DHT22;9266;51.132;17.062;2023-12-29T12:24:57;11.70;1.00
18281;DHT22;9266;51.132;17.062;2023-12-29T12:27:25;11.80;1.00
18281;DHT22;9266;51.132;17.062;2023-12-29T12:29:53;11.80;1.00
18281;DHT22;9266;51.132;17.062;2023-12-29T12:32:23;11.90;1.00
18281;DHT22;9266;51.132;17.062;2023-12-29T12:34:50;10.60;1.00
18281;DHT22;9266;51.132;17.062;2023-12-29T12:37:22;12.10;1.00
18281;DHT22;9266;51.132;17.062;2023-12-29T12:39:49;12.10;1.00
18281;DHT22;9266;51.132;17.062;2023-12-29T12:42:17;12.00;1.00
18281;DHT22;9266;51.132;17.062;2023-12-29T12:44:49;12.00;1.00
18281;DHT22;9266;51.132;17.062;2023-12-29T12:47:25;12.00;1.00
18281;DHT22;9266;51.132;17.062;2023-12-29T12:49:53;11.90;1.00
18281;DHT22;9266;51.132;17.062;2023-12-29T12:52:22;12.00;1.00
18281;DHT22;9266;51.132;17.062;2023-12-29T12:54:49;12.00;1.00
18281;DHT22;9266;51.132;17.062;2023-12-29T12:57:20;12.00;1.00
18281;DHT22;9266;51.132;17.062;2023-12-29T12:59:48;12.00;1.00
18281;DHT22;9266;51.132;17.062;2023-12-29T13:02:16;12.00;1.00
18281;DHT22;9266;51.132;17.062;2023-12-29T13:04:45;11.90;1.00
18281;DHT22;9266;51.132;17.062;2023-12-29T13:07:15;10.80;1.00
18281;DHT22;9266;51.132;17.062;2023-12-29T13:09:44;12.00;1.00
18281;DHT22;9266;51.132;17.062;2023-12-29T13:12:13;12.00;1.00
18281;DHT22;9266;51.132;17.062;2023-12-29T13:14:41;12.00;1.00
18281;DHT22;9266;51.132;17.062;2023-12-29T13:17:09;12.00;1.00
18281;DHT22;9266;51.132;17.062;2023-12-29T13:19:37;12.10;1.00
18281;DHT22;9266;51.132;17.062;2023-12-29T13:22:07;12.00;1.00
18281;DHT22;9266;51.132;17.062;2023-12-29T13:24:34;11.90;1.00
18281;DHT22;9266;51.132;17.062;2023-12-29T13:27:05;11.80;1.00
18281;DHT22;9266;51.132;17.062;2023-12-29T13:29:34;11.80;1.00
18281;DHT22;9266;51.132;17.062;2023-12-29T13:32:05;11.70;1.00
18281;DHT22;9266;51.132;17.062;2023-12-29T13:34:38;10.40;1.00
18281;DHT22;9266;51.132;17.062;2023-12-29T13:37:10;11.60;1.00
18281;DHT22;9266;51.132;17.062;2023-12-29T13:39:44;11.50;1.00
18281;DHT22;9266;51.132;17.062;2023-12-29T13:42:17;11.40;1.00
18281;DHT22;9266;51.132;17.062;2023-12-29T13:44:45;11.20;1.00
18281;DHT22;9266;51.132;17.062;2023-12-29T13:47:13;11.00;1.00
18281;DHT22;9266;51.132;17.062;2023-12-29T13:49:40;11.00;1.00
18281;DHT22;9266;51.132;17.062;2023-12-29T13:52:07;10.90;1.00
18281;DHT22;9266;51.132;17.062;2023-12-29T13:54:41;10.90;1.00
18281;DHT22;9266;51.132;17.062;2023-12-29T13:57:08;10.80;1.00
18281;DHT22;9266;51.132;17.062;2023-12-29T13:59:36;10.70;1.00
18281;DHT22;9266;51.132;17.062;2023-12-29T14:02:20;10.60;1.00
18281;DHT22;9266;51.132;17.062;2023-12-29T14:04:50;10.60;1.00
18281;DHT22;9266;51.132;17.062;2023-12-29T14:07:19;11.30;1.00
18281;DHT22;9266;51.132;17.062;2023-12-29T14:09:53;10.40;1.00
18281;DHT22;9266;51.132;17.062;2023-12-29T14:12:23;10.30;1.00
18281;DHT22;9266;51.132;17.062;2023-12-29T14:14:53;10.20;1.00
18281;DHT22;9266;51.132;17.062;2023-12-29T14:17:21;10.10;1.00
18281;DHT22;9266;51.132;17.062;2023-12-29T14:19:48;10.20;1.00
18281;DHT22;9266;51.132;17.062;2023-12-29T14:22:21;10.10;1.00
18281;DHT22;9266;51.132;17.062;2023-12-29T14:24:59;10.10;1.00
18281;DHT22;9266;51.132;17.062;2023-12-29T14:27:26;9.90;1.00
18281;DHT22;9266;51.132;17.062;2023-12-29T14:29:54;9.80;1.00
18281;DHT22;9266;51.132;17.062;2023-12-29T14:32:21;9.70;1.00
18281;DHT22;9266;51.132;17.062;2023-12-29T14:34:49;9.80;1.00
18281;DHT22;9266;51.132;17.062;2023-12-29T14:37:18;9.80;1.00
18281;DHT22;9266;51.132;17.062;2023-12-29T14:39:48;9.80;1.00
18281;DHT22;9266;51.132;17.062;2023-12-29T14:42:15;9.80;1.00
18281;DHT22;9266;51.132;17.062;2023-12-29T14:44:45;9.80;1.00
18281;DHT22;9266;51.132;17.062;2023-12-29T14:47:13;9.80;1.00
18281;DHT22;9266;51.132;17.062;2023-12-29T14:49:40;9.80;1.00
18281;DHT22;9266;51.132;17.062;2023-12-29T14:52:08;9.80;1.00
18281;DHT22;9266;51.132;17.062;2023-12-29T14:54:35;9.80;1.00
18281;DHT22;9266;51.132;17.062;2023-12-29T14:57:02;9.70;1.00
18281;DHT22;9266;51.132;17.062;2023-12-29T14:59:29;9.60;1.00
18281;DHT22;9266;51.132;17.062;2023-12-29T15:01:56;9.50;1.00
18281;DHT22;9266;51.132;17.062;2023-12-29T15:04:24;9.50;1.00
18281;DHT22;9266;51.132;17.062;2023-12-29T15:06:51;9.40;1.00
18281;DHT22;9266;51.132;17.062;2023-12-29T15:09:18;9.40;1.00
18281;DHT22;9266;51.132;17.062;2023-12-29T15:11:45;9.60;1.00
18281;DHT22;9266;51.132;17.062;2023-12-29T15:14:15;9.50;1.00
18281;DHT22;9266;51.132;17.062;2023-12-29T15:16:42;9.50;1.00
18281;DHT22;9266;51.132;17.062;2023-12-29T15:19:09;9.50;1.00
18281;DHT22;9266;51.132;17.062;2023-12-29T15:21:38;9.50;1.00
18281;DHT22;9266;51.132;17.062;2023-12-29T15:24:06;9.50;1.00
18281;DHT22;9266;51.132;17.062;2023-12-29T15:26:33;9.60;1.00
18281;DHT22;9266;51.132;17.062;2023-12-29T15:29:00;9.60;1.00
18281;DHT22;9266;51.132;17.062;2023-12-29T15:31:28;9.50;1.00
18281;DHT22;9266;51.132;17.062;2023-12-29T15:33:55;9.40;1.00
18281;DHT22;9266;51.132;17.062;2023-12-29T15:36:22;9.50;1.00
18281;DHT22;9266;51.132;17.062;2023-12-29T15:38:51;9.40;1.00
18281;DHT22;9266;51.132;17.062;2023-12-29T15:41:18;9.30;1.00
18281;DHT22;9266;51.132;17.062;2023-12-29T15:43:45;9.30;1.00
18281;DHT22;9266;51.132;17.062;2023-12-29T15:46:13;9.30;1.00
18281;DHT22;9266;51.132;17.062;2023-12-29T15:48:40;9.40;1.00
18281;DHT22;9266;51.132;17.062;2023-12-29T15:51:07;9.40;1.00
18281;DHT22;9266;51.132;17.062;2023-12-29T15:53:34;9.30;1.00
18281;DHT22;9266;51.132;17.062;2023-12-29T15:56:03;9.30;1.00
18281;DHT22;9266;51.132;17.062;2023-12-29T15:58:30;9.30;1.00
18281;DHT22;9266;51.132;17.062;2023-12-29T16:00:58;9.30;1.00